Aviation Digital Data Service (ADDS)

Output produced by TAFs form (1906 UTC 01 September 2014)
found at http://www.aviationweather.gov/adds/tafs/
 
KAPA 011853Z 12005KT 10SM FEW150 23/03 A3006 RMK AO2 SLP120 T02280028 $
KAPA 011739Z 0118/0218 VRB05KT P6SM SCT100 
     FM012000 34008KT P6SM SCT100 
     FM020200 15006KT P6SM FEW100 
     FM020500 19007KT P6SM FEW200 
     FM020900 VRB05KT P6SM FEW100